地図

経路データ

SID SEASON NUMBER BASIN SUBBASIN NAME ISO_TIME NATURE LAT LON WMO_WIND WMO_PRES WMO_AGENCY TRACK_TYPE DIST2LAND LANDFALL IFLAG USA_AGENCY USA_ATCF_ID USA_LAT USA_LON USA_RECORD USA_STATUS USA_WIND USA_PRES USA_SSHS USA_R34_NE USA_R34_SE USA_R34_SW USA_R34_NW USA_R50_NE USA_R50_SE USA_R50_SW USA_R50_NW USA_R64_NE USA_R64_SE USA_R64_SW USA_R64_NW USA_POCI USA_ROCI USA_RMW USA_EYE TOKYO_LAT TOKYO_LON TOKYO_GRADE TOKYO_WIND TOKYO_PRES TOKYO_R50_DIR TOKYO_R50_LONG TOKYO_R50_SHORT TOKYO_R30_DIR TOKYO_R30_LONG TOKYO_R30_SHORT TOKYO_LAND CMA_LAT CMA_LON CMA_CAT CMA_WIND CMA_PRES HKO_LAT HKO_LON HKO_CAT HKO_WIND HKO_PRES NEWDELHI_LAT NEWDELHI_LON NEWDELHI_GRADE NEWDELHI_WIND NEWDELHI_PRES NEWDELHI_CI NEWDELHI_DP NEWDELHI_POCI REUNION_LAT REUNION_LON REUNION_TYPE REUNION_WIND REUNION_PRES REUNION_TNUM REUNION_CI REUNION_RMW REUNION_R34_NE REUNION_R34_SE REUNION_R34_SW REUNION_R34_NW REUNION_R50_NE REUNION_R50_SE REUNION_R50_SW REUNION_R50_NW REUNION_R64_NE REUNION_R64_SE REUNION_R64_SW REUNION_R64_NW BOM_LAT BOM_LON BOM_TYPE BOM_WIND BOM_PRES BOM_TNUM BOM_CI BOM_RMW BOM_R34_NE BOM_R34_SE BOM_R34_SW BOM_R34_NW BOM_R50_NE BOM_R50_SE BOM_R50_SW BOM_R50_NW BOM_R64_NE BOM_R64_SE BOM_R64_SW BOM_R64_NW BOM_ROCI BOM_POCI BOM_EYE BOM_POS_METHOD BOM_PRES_METHOD NADI_LAT NADI_LON NADI_CAT NADI_WIND NADI_PRES WELLINGTON_LAT WELLINGTON_LON WELLINGTON_WIND WELLINGTON_PRES DS824_LAT DS824_LON DS824_STAGE DS824_WIND DS824_PRES TD9636_LAT TD9636_LON TD9636_STAGE TD9636_WIND TD9636_PRES TD9635_LAT TD9635_LON TD9635_WIND TD9635_PRES TD9635_ROCI NEUMANN_LAT NEUMANN_LON NEUMANN_CLASS NEUMANN_WIND NEUMANN_PRES MLC_LAT MLC_LON MLC_CLASS MLC_WIND MLC_PRES USA_GUST BOM_GUST BOM_GUST_PER REUNION_GUST REUNION_GUST_PER USA_SEAHGT USA_SEARAD_NE USA_SEARAD_SE USA_SEARAD_SW USA_SEARAD_NW STORM_SPEED STORM_DIR
1905303N12133 1905 52 WP MM NOT_NAMED 1905-10-29 16:00:00 NR 12.2000 133.400 main 839 746 __________O___ -1 12.2000 133.400 7 27 283
1905303N12133 1905 52 WP MM NOT_NAMED 1905-10-29 18:00:00 NR 12.4065 132.505 main 746 618 __________P___ -1 12.4065 132.505 7 26 283
1905303N12133 1905 52 WP MM NOT_NAMED 1905-10-29 21:00:00 NR 12.7107 131.209 main 618 496 __________P___ -1 12.7107 131.209 7 25 284
1905303N12133 1905 52 WP MM NOT_NAMED 1905-10-30 00:00:00 NR 13.0088 130.037 main 496 409 __________P___ -1 13.0088 130.037 7 22 286
1905303N12133 1905 52 WP MM NOT_NAMED 1905-10-30 03:00:00 NR 13.3026 129.066 main 409 382 __________P___ -1 13.3026 129.066 7 19 288
1905303N12133 1905 52 WP MM NOT_NAMED 1905-10-30 04:00:00 NR 13.4000 128.800 main 382 351 __________O___ -1 13.4000 128.800 7 15 293
1905303N12133 1905 52 WP MM NOT_NAMED 1905-10-30 06:00:00 NR 13.5954 128.364 main 351 322 __________P___ -1 13.5954 128.364 7 12 300
1905303N12133 1905 52 WP MM NOT_NAMED 1905-10-30 09:00:00 NR 13.8967 127.907 main 322 313 __________P___ -1 13.8967 127.907 7 10 310
1905303N12133 1905 52 WP MM NOT_NAMED 1905-10-30 12:00:00 NR 14.2188 127.607 main 319 319 __________P___ -1 14.2188 127.607 7 9 323
1905303N12133 1905 52 WP MM NOT_NAMED 1905-10-30 15:00:00 NR 14.5729 127.376 main 332 322 __________P___ -1 14.5729 127.376 7 9 328
1905303N12133 1905 52 WP MM NOT_NAMED 1905-10-30 16:00:00 NR 14.7000 127.300 main 325 311 __________O___ -1 14.7000 127.300 7 10 323
1905303N12133 1905 52 WP MM NOT_NAMED 1905-10-30 18:00:00 NR 14.9688 127.065 main 315 299 __________P___ -1 14.9688 127.065 7 11 322
1905303N12133 1905 52 WP MM NOT_NAMED 1905-10-30 21:00:00 NR 15.4035 126.730 main 299 296 __________P___ -1 15.4035 126.730 7 11 326
1905303N12133 1905 52 WP MM NOT_NAMED 1905-10-31 00:00:00 NR 15.8650 126.429 main 310 310 __________P___ -1 15.8650 126.429 7 11 330
1905303N12133 1905 52 WP MM NOT_NAMED 1905-10-31 03:00:00 NR 16.3405 126.173 main 328 330 __________P___ -1 16.3405 126.173 7 11 333
1905303N12133 1905 52 WP MM NOT_NAMED 1905-10-31 04:00:00 NR 16.5000 126.100 main 340 340 __________O___ -1 16.5000 126.100 3 10 337
1905303N12133 1905 52 WP MM NOT_NAMED 1905-10-31 06:00:00 NR 16.8134 125.968 main 362 351 __________P___ -1 16.8134 125.968 3 10 341
1905303N12133 1905 52 WP MM NOT_NAMED 1905-10-31 09:00:00 NR 17.2900 125.815 main 352 346 __________P___ -1 17.2900 125.815 3 10 345
1905303N12133 1905 52 WP MM NOT_NAMED 1905-10-31 12:00:00 NR 17.7689 125.705 main 351 348 __________P___ -1 17.7689 125.705 3 10 349
1905303N12133 1905 52 WP MM NOT_NAMED 1905-10-31 15:00:00 NR 18.2437 125.623 main 348 348 __________P___ -1 18.2437 125.623 3 10 352
1905303N12133 1905 52 WP MM NOT_NAMED 1905-10-31 16:00:00 NR 18.4000 125.600 main 348 339 __________O___ -1 18.4000 125.600 4 9 351
1905303N12133 1905 52 WP MM NOT_NAMED 1905-10-31 18:00:00 NR 18.7057 125.539 main 339 339 __________P___ -1 18.7057 125.539 4 9 351
1905303N12133 1905 52 WP MM NOT_NAMED 1905-10-31 21:00:00 NR 19.1579 125.466 main 348 341 __________P___ -1 19.1579 125.466 4 9 353
1905303N12133 1905 52 WP MM NOT_NAMED 1905-11-01 00:00:00 NR 19.6054 125.419 main 352 352 __________P___ -1 19.6054 125.419 4 9 355
1905303N12133 1905 52 WP MM NOT_NAMED 1905-11-01 03:00:00 NR 20.0512 125.400 main 376 376 __________P___ -1 20.0512 125.400 4 9 359
1905303N12133 1905 52 WP MM NOT_NAMED 1905-11-01 04:00:00 NR 20.2000 125.400 main 382 382 __________O___ -1 20.2000 125.400 4 9 3
1905303N12133 1905 52 WP MM NOT_NAMED 1905-11-01 06:00:00 NR 20.5000 125.405 main 401 401 __________P___ -1 20.5000 125.405 4 9 3
1905303N12133 1905 52 WP MM NOT_NAMED 1905-11-01 09:00:00 NR 20.9500 125.438 main 428 435 __________P___ -1 20.9500 125.438 4 9 5
1905303N12133 1905 52 WP MM NOT_NAMED 1905-11-01 12:00:00 NR 21.4000 125.496 main 462 449 __________P___ -1 21.4000 125.496 4 9 8
1905303N12133 1905 52 WP MM NOT_NAMED 1905-11-01 15:00:00 NR 21.8500 125.572 main 455 448 __________P___ -1 21.8500 125.572 4 9 9
1905303N12133 1905 52 WP MM NOT_NAMED 1905-11-01 16:00:00 NR 22.0000 125.600 main 448 439 __________O___ -1 22.0000 125.600 4 9 9
1905303N12133 1905 52 WP MM NOT_NAMED 1905-11-01 18:00:00 NR 22.3025 125.640 main 439 430 __________P___ -1 22.3025 125.640 4 9 8
1905303N12133 1905 52 WP MM NOT_NAMED 1905-11-01 21:00:00 NR 22.7564 125.712 main 430 422 __________P___ -1 22.7564 125.712 4 9 10
1905303N12133 1905 52 WP MM NOT_NAMED 1905-11-02 00:00:00 NR 23.2077 125.809 main 422 414 __________P___ -1 23.2077 125.809 4 9 13
1905303N12133 1905 52 WP MM NOT_NAMED 1905-11-02 03:00:00 NR 23.6533 125.944 main 415 423 __________P___ -1 23.6533 125.944 4 9 17
1905303N12133 1905 52 WP MM NOT_NAMED 1905-11-02 04:00:00 NR 23.8000 126.000 main 423 420 __________O___ -1 23.8000 126.000 4 10 21
1905303N12133 1905 52 WP MM NOT_NAMED 1905-11-02 06:00:00 NR 24.0969 126.127 main 426 426 __________P___ -1 24.0969 126.127 4 10 24
1905303N12133 1905 52 WP MM NOT_NAMED 1905-11-02 09:00:00 NR 24.5362 126.355 main 447 444 __________P___ -1 24.5362 126.355 4 10 27
1905303N12133 1905 52 WP MM NOT_NAMED 1905-11-02 12:00:00 NR 24.9624 126.618 main 463 463 __________P___ -1 24.9624 126.618 4 10 31
1905303N12133 1905 52 WP MM NOT_NAMED 1905-11-02 15:00:00 NR 25.3696 126.903 main 494 494 __________P___ -1 25.3696 126.903 4 10 33
1905303N12133 1905 52 WP MM NOT_NAMED 1905-11-02 16:00:00 NR 25.5000 127.000 main 505 505 __________O___ -1 25.5000 127.000 4 9 35
1905303N12133 1905 52 WP MM NOT_NAMED 1905-11-02 18:00:00 NR 25.7521 127.196 main 529 529 __________P___ -1 25.7521 127.196 4 9 36
1905303N12133 1905 52 WP MM NOT_NAMED 1905-11-02 21:00:00 NR 26.1119 127.494 main 564 564 __________P___ -1 26.1119 127.494 4 9 37
1905303N12133 1905 52 WP MM NOT_NAMED 1905-11-03 00:00:00 NR 26.4555 127.795 main 574 531 __________P___ -1 26.4555 127.795 4 9 39
1905303N12133 1905 52 WP MM NOT_NAMED 1905-11-03 03:00:00 NR 26.7896 128.098 main 531 517 __________P___ -1 26.7896 128.098 4 9 39
1905303N12133 1905 52 WP MM NOT_NAMED 1905-11-03 04:00:00 NR 26.9000 128.200 main 517 __________O___ -1 26.9000 128.200 4 9 39

デジタル台風データ・検索

IBTrACS Databaseについて

本データベースは、米国NOAAが公開する1842年以降の世界の熱帯低気圧のベストトラックデータアーカイブInternational Best Track Archive for Climate Stewardship (IBTrACS)を、ウェブで閲覧しやすい形式に変換したものです。

最終更新日:2021-12-06